createdAt,value
2023-07-18T00:00:39.842Z,4.00
2023-07-18T00:03:06.835Z,3.90
2023-07-18T00:05:34.666Z,4.10
2023-07-18T00:08:01.863Z,4.90
2023-07-18T00:10:28.697Z,4.00
2023-07-18T00:12:55.488Z,3.90
2023-07-18T00:15:23.215Z,4.00
2023-07-18T00:17:49.836Z,3.90
2023-07-18T00:20:19.238Z,3.70
2023-07-18T00:22:48.618Z,3.90
2023-07-18T00:25:17.163Z,3.90
2023-07-18T00:27:44.108Z,3.80
2023-07-18T00:30:13.970Z,3.80
2023-07-18T00:35:49.386Z,4.10
2023-07-18T00:38:16.774Z,4.00
2023-07-18T00:40:44.104Z,3.60
2023-07-18T00:43:15.927Z,3.70
2023-07-18T00:45:44.532Z,4.20
2023-07-18T00:48:12.593Z,3.80
2023-07-18T00:50:40.194Z,3.40
2023-07-18T00:53:07.586Z,4.40
2023-07-18T00:55:35.252Z,4.10
2023-07-18T00:58:02.797Z,3.80
2023-07-18T01:00:30.384Z,3.90
2023-07-18T01:02:58.258Z,3.90
2023-07-18T01:05:25.716Z,4.60
2023-07-18T01:07:53.041Z,4.10
2023-07-18T01:10:25.465Z,4.40
2023-07-18T01:13:01.101Z,4.50
2023-07-18T01:15:34.583Z,4.50
2023-07-18T01:18:08.169Z,4.60
2023-07-18T01:20:37.361Z,4.40
2023-07-18T01:23:05.511Z,4.40
2023-07-18T01:25:35.097Z,4.40
2023-07-18T01:28:02.600Z,4.50
2023-07-18T01:30:31.250Z,4.60
2023-07-18T01:32:58.975Z,4.40
2023-07-18T01:35:27.453Z,4.50
2023-07-18T01:37:55.719Z,4.30
2023-07-18T01:40:23.289Z,4.60
2023-07-18T01:42:54.433Z,5.10
2023-07-18T01:45:22.574Z,5.90
2023-07-18T01:47:50.582Z,6.10
2023-07-18T01:50:19.384Z,5.60
2023-07-18T01:52:50.411Z,6.40
2023-07-18T01:55:18.254Z,6.10
2023-07-18T01:57:47.340Z,7.40
2023-07-18T02:00:21.105Z,7.80
2023-07-18T02:02:50.505Z,6.90
2023-07-18T02:05:25.510Z,5.90
2023-07-18T02:07:53.671Z,5.40
2023-07-18T02:10:22.035Z,5.80
2023-07-18T02:12:50.438Z,5.40
2023-07-18T02:15:18.038Z,5.60
2023-07-18T02:17:46.029Z,5.50
2023-07-18T02:20:15.573Z,6.50
2023-07-18T02:22:44.251Z,6.30
2023-07-18T02:25:12.068Z,6.20
2023-07-18T02:27:40.907Z,6.40
2023-07-18T02:30:13.120Z,6.10
2023-07-18T02:32:42.935Z,6.70
2023-07-18T02:35:11.859Z,7.20
2023-07-18T02:37:39.280Z,8.20
2023-07-18T02:40:10.729Z,7.90
2023-07-18T02:42:38.986Z,7.20
2023-07-18T02:45:08.088Z,7.00
2023-07-18T02:47:35.587Z,6.10
2023-07-18T02:50:03.181Z,6.00
2023-07-18T02:52:31.791Z,4.90
2023-07-18T02:54:59.469Z,5.60
2023-07-18T02:57:27.538Z,5.40
2023-07-18T02:59:55.080Z,5.50
2023-07-18T03:04:48.719Z,6.50
2023-07-18T03:07:19.261Z,5.90
2023-07-18T03:09:47.118Z,6.50
2023-07-18T03:12:14.818Z,5.60
2023-07-18T03:14:43.036Z,6.10
2023-07-18T03:17:10.527Z,5.30
2023-07-18T03:19:38.341Z,6.00
2023-07-18T03:22:05.957Z,5.50
2023-07-18T03:24:35.562Z,5.10
2023-07-18T03:27:04.757Z,4.80
2023-07-18T03:29:32.377Z,4.80
2023-07-18T03:32:02.192Z,4.50
2023-07-18T03:34:30.157Z,4.80
2023-07-18T03:36:58.065Z,4.50
2023-07-18T03:39:25.526Z,4.70
2023-07-18T03:41:53.317Z,4.90
2023-07-18T03:44:20.701Z,7.20
2023-07-18T03:46:48.286Z,7.30
2023-07-18T03:49:15.757Z,7.20
2023-07-18T03:51:43.187Z,7.00
2023-07-18T03:54:10.778Z,5.60
2023-07-18T03:56:39.095Z,5.10
2023-07-18T03:59:06.422Z,5.30
2023-07-18T04:01:33.880Z,5.50
2023-07-18T04:04:01.359Z,5.90
2023-07-18T04:06:29.290Z,4.80
2023-07-18T04:08:56.610Z,5.10
2023-07-18T04:11:23.981Z,4.90
2023-07-18T04:13:51.429Z,5.10
2023-07-18T04:16:18.893Z,4.80
2023-07-18T04:18:46.357Z,6.60
2023-07-18T04:21:13.746Z,7.50
2023-07-18T04:23:41.092Z,8.30
2023-07-18T04:26:10.476Z,10.40
2023-07-18T04:28:38.362Z,7.90
2023-07-18T04:31:06.533Z,9.40
2023-07-18T04:33:37.811Z,8.10
2023-07-18T04:36:06.052Z,9.30
2023-07-18T04:38:33.691Z,8.20
2023-07-18T04:41:02.801Z,6.50
2023-07-18T04:43:30.617Z,6.00
2023-07-18T04:45:58.047Z,7.20
2023-07-18T04:48:25.426Z,3.80
2023-07-18T04:51:00.207Z,3.50
2023-07-18T04:53:28.628Z,2.90
2023-07-18T04:55:59.451Z,3.00
2023-07-18T05:00:58.514Z,2.60
2023-07-18T05:03:26.998Z,2.40
2023-07-18T05:05:54.483Z,2.40
2023-07-18T05:08:22.375Z,2.40
2023-07-18T05:10:51.154Z,2.60
2023-07-18T05:13:18.809Z,2.50
2023-07-18T05:15:46.315Z,2.60
2023-07-18T05:18:13.794Z,2.40
2023-07-18T05:20:41.117Z,2.30
2023-07-18T05:23:08.776Z,2.90
2023-07-18T05:25:39.604Z,2.70
2023-07-18T05:28:08.116Z,2.70
2023-07-18T05:30:35.507Z,2.60
2023-07-18T05:33:02.850Z,2.90
2023-07-18T05:35:30.294Z,3.20
2023-07-18T05:37:57.792Z,2.70
2023-07-18T05:40:25.978Z,2.70
2023-07-18T05:42:53.359Z,2.90
2023-07-18T05:45:20.952Z,3.20
2023-07-18T05:47:48.490Z,3.20
2023-07-18T05:50:15.954Z,3.20
2023-07-18T05:52:43.382Z,2.80
2023-07-18T05:55:11.220Z,3.40
2023-07-18T05:57:40.403Z,2.80
2023-07-18T06:00:11.530Z,3.10
2023-07-18T06:02:42.616Z,2.80
2023-07-18T06:05:11.020Z,3.10
2023-07-18T06:07:38.852Z,3.10
2023-07-18T06:10:06.816Z,2.80
2023-07-18T06:12:34.329Z,3.10
2023-07-18T06:15:01.661Z,3.10
2023-07-18T06:17:29.543Z,3.60
2023-07-18T06:19:57.118Z,3.40
2023-07-18T06:22:24.536Z,3.40
2023-07-18T06:24:51.908Z,3.40
2023-07-18T06:27:19.178Z,3.20
2023-07-18T06:29:48.120Z,3.40
2023-07-18T06:32:15.462Z,3.90
2023-07-18T06:34:44.728Z,3.70
2023-07-18T06:37:12.168Z,3.00
2023-07-18T06:39:40.007Z,3.00
2023-07-18T06:42:10.119Z,3.10
2023-07-18T06:44:39.258Z,3.60
2023-07-18T06:47:07.671Z,3.20
2023-07-18T06:49:35.449Z,2.80
2023-07-18T06:52:02.912Z,3.40
2023-07-18T06:54:30.254Z,3.50
2023-07-18T06:56:57.612Z,3.10
2023-07-18T06:59:25.651Z,3.20
2023-07-18T07:01:53.492Z,3.20
2023-07-18T07:04:21.081Z,4.00
2023-07-18T07:06:48.664Z,3.10
2023-07-18T07:09:16.011Z,2.80
2023-07-18T07:11:44.465Z,2.90
2023-07-18T07:14:15.113Z,3.20
2023-07-18T07:16:43.038Z,3.80
2023-07-18T07:19:10.556Z,3.20
2023-07-18T07:21:37.928Z,3.20
2023-07-18T07:24:05.683Z,3.10
2023-07-18T07:26:33.040Z,3.40
2023-07-18T07:29:00.472Z,2.90
2023-07-18T07:31:27.852Z,3.10
2023-07-18T07:33:55.998Z,3.00
2023-07-18T07:36:23.398Z,3.40
2023-07-18T07:38:50.781Z,3.50
2023-07-18T07:41:18.358Z,3.40
2023-07-18T07:43:46.116Z,3.10
2023-07-18T07:46:13.444Z,2.80
2023-07-18T07:48:41.770Z,3.40
2023-07-18T07:51:09.304Z,3.30
2023-07-18T07:53:36.676Z,3.50
2023-07-18T07:56:04.252Z,3.10
2023-07-18T07:58:31.710Z,3.20
2023-07-18T08:00:59.409Z,3.00
2023-07-18T08:03:26.729Z,3.00
2023-07-18T08:05:54.267Z,3.10
2023-07-18T08:08:21.661Z,3.30
2023-07-18T08:10:49.081Z,3.60
2023-07-18T08:13:18.988Z,3.10
2023-07-18T08:15:46.339Z,3.20
2023-07-18T08:18:13.647Z,3.60
2023-07-18T08:20:40.960Z,3.40
2023-07-18T08:23:08.588Z,4.30
2023-07-18T08:25:36.168Z,3.50
2023-07-18T08:28:03.632Z,3.20
2023-07-18T08:30:30.921Z,3.60
2023-07-18T08:32:58.247Z,3.00
2023-07-18T08:35:26.324Z,3.30
2023-07-18T08:37:54.596Z,3.20
2023-07-18T08:40:21.982Z,3.00
2023-07-18T08:42:49.278Z,2.80
2023-07-18T08:45:16.720Z,2.90
2023-07-18T08:47:45.067Z,2.80
2023-07-18T08:50:12.735Z,3.00
2023-07-18T08:52:40.930Z,3.20
2023-07-18T08:55:09.296Z,2.80
2023-07-18T08:57:37.167Z,2.80
2023-07-18T09:00:06.087Z,2.70
2023-07-18T09:02:33.745Z,2.90
2023-07-18T09:05:01.970Z,3.10
2023-07-18T09:07:29.549Z,2.90
2023-07-18T09:09:59.036Z,2.50
2023-07-18T09:12:27.751Z,3.00
2023-07-18T09:14:58.530Z,2.70
2023-07-18T09:17:26.098Z,3.00
2023-07-18T09:19:54.022Z,2.80
2023-07-18T09:22:22.361Z,2.30
2023-07-18T09:24:49.911Z,2.90
2023-07-18T09:27:19.199Z,3.10
2023-07-18T09:29:47.681Z,2.40
2023-07-18T09:32:21.703Z,2.50
2023-07-18T09:34:56.305Z,2.70
2023-07-18T09:37:23.765Z,2.40
2023-07-18T09:39:51.432Z,2.40
2023-07-18T09:42:20.261Z,2.40
2023-07-18T09:44:51.955Z,2.50
2023-07-18T09:47:20.212Z,2.60
2023-07-18T09:49:47.574Z,2.50
2023-07-18T09:52:16.254Z,3.10
2023-07-18T09:54:44.714Z,2.50
2023-07-18T09:57:12.160Z,2.40
2023-07-18T09:59:40.598Z,2.50
2023-07-18T10:02:10.484Z,2.20
2023-07-18T10:04:38.074Z,2.60
2023-07-18T10:07:08.825Z,2.80
2023-07-18T10:09:36.377Z,2.60
2023-07-18T10:12:03.721Z,2.60
2023-07-18T10:14:32.021Z,2.80
2023-07-18T10:17:07.563Z,3.20
2023-07-18T10:19:51.839Z,4.10
2023-07-18T10:22:29.758Z,3.50
2023-07-18T10:25:02.122Z,3.60
2023-07-18T10:27:39.968Z,4.10
2023-07-18T10:30:09.245Z,6.50
2023-07-18T10:32:38.622Z,5.70
2023-07-18T10:35:10.847Z,4.90
2023-07-18T10:37:38.921Z,4.70
2023-07-18T10:40:06.990Z,5.00
2023-07-18T10:42:36.225Z,5.10
2023-07-18T10:45:05.631Z,4.80
2023-07-18T10:47:37.444Z,4.90
2023-07-18T10:50:05.586Z,4.80
2023-07-18T10:52:34.033Z,5.00
2023-07-18T10:55:01.634Z,4.80
2023-07-18T10:57:34.180Z,4.60
2023-07-18T11:00:02.471Z,4.70
2023-07-18T11:02:46.094Z,5.20
2023-07-18T11:05:14.430Z,5.10
2023-07-18T11:07:43.504Z,5.40
2023-07-18T11:10:11.449Z,5.50
2023-07-18T11:12:38.953Z,5.70
2023-07-18T11:15:07.564Z,6.50
2023-07-18T11:17:35.086Z,6.20
2023-07-18T11:20:04.265Z,6.50
2023-07-18T11:22:32.263Z,6.50
2023-07-18T11:24:59.830Z,6.90
2023-07-18T11:27:27.712Z,6.50
2023-07-18T11:30:05.911Z,7.20
2023-07-18T11:32:43.377Z,7.60
2023-07-18T11:35:12.430Z,7.90
2023-07-18T11:37:43.241Z,8.70
2023-07-18T11:42:46.761Z,8.90
2023-07-18T11:45:21.206Z,9.80
2023-07-18T11:47:51.798Z,8.80
2023-07-18T11:50:20.141Z,8.90
2023-07-18T11:52:49.165Z,8.90
2023-07-18T11:55:17.444Z,9.40
2023-07-18T11:57:45.316Z,9.30
2023-07-18T12:00:13.711Z,9.70
2023-07-18T12:02:41.323Z,10.00
2023-07-18T12:05:09.417Z,10.30
2023-07-18T12:07:36.831Z,10.70
2023-07-18T12:10:08.287Z,11.40
2023-07-18T12:12:35.815Z,11.20
2023-07-18T12:15:03.691Z,11.80
2023-07-18T12:17:31.074Z,11.70
2023-07-18T12:19:58.459Z,12.00
2023-07-18T12:22:25.792Z,11.80
2023-07-18T12:24:53.425Z,10.20
2023-07-18T12:27:21.469Z,10.60
2023-07-18T12:29:48.834Z,10.70
2023-07-18T12:32:19.065Z,8.90
2023-07-18T12:34:46.808Z,9.70
2023-07-18T12:37:14.259Z,8.70
2023-07-18T12:39:42.039Z,8.20
2023-07-18T12:42:09.571Z,8.10
2023-07-18T12:44:45.019Z,7.40
2023-07-18T12:47:13.418Z,7.10
2023-07-18T12:52:11.471Z,6.70
2023-07-18T12:54:38.813Z,6.10
2023-07-18T12:57:06.593Z,5.70
2023-07-18T12:59:33.972Z,6.20
2023-07-18T13:02:01.414Z,5.80
2023-07-18T13:04:28.848Z,5.80
2023-07-18T13:06:56.211Z,5.40
2023-07-18T13:09:23.843Z,5.70
2023-07-18T13:11:51.648Z,5.50
2023-07-18T13:14:21.212Z,5.60
2023-07-18T13:16:48.924Z,5.60
2023-07-18T13:19:16.785Z,5.30
2023-07-18T13:21:45.269Z,5.30
2023-07-18T13:24:12.853Z,5.90
2023-07-18T13:26:40.324Z,5.10
2023-07-18T13:29:08.017Z,4.90
2023-07-18T13:31:35.816Z,5.20
2023-07-18T13:34:04.100Z,5.50
2023-07-18T13:36:32.143Z,5.40
2023-07-18T13:38:59.521Z,5.10
2023-07-18T13:41:27.360Z,5.10
2023-07-18T13:43:54.803Z,5.50
2023-07-18T13:46:22.284Z,5.20
2023-07-18T13:48:50.282Z,5.10
2023-07-18T13:51:17.863Z,4.60
2023-07-18T13:53:45.927Z,4.50
2023-07-18T13:56:13.446Z,5.40
2023-07-18T13:58:40.816Z,4.80
2023-07-18T14:01:08.678Z,4.70
2023-07-18T14:03:37.132Z,4.40
2023-07-18T14:06:05.166Z,4.10
2023-07-18T14:08:33.235Z,4.80
2023-07-18T14:11:01.061Z,3.90
2023-07-18T14:13:28.488Z,4.30
2023-07-18T14:15:55.922Z,4.60
2023-07-18T14:18:23.554Z,4.70
2023-07-18T14:20:50.899Z,4.20
2023-07-18T14:23:18.719Z,4.30
2023-07-18T14:25:48.104Z,4.20
2023-07-18T14:31:03.931Z,4.20
2023-07-18T14:33:31.532Z,4.20
2023-07-18T14:35:59.309Z,4.40
2023-07-18T14:38:27.038Z,3.80
2023-07-18T14:40:55.329Z,4.00
2023-07-18T14:43:30.601Z,4.30
2023-07-18T14:45:58.272Z,4.00
2023-07-18T14:48:25.812Z,4.40
2023-07-18T14:50:53.244Z,4.00
2023-07-18T14:53:20.611Z,3.90
2023-07-18T14:55:48.054Z,4.10
2023-07-18T14:58:16.057Z,4.10
2023-07-18T15:00:43.417Z,3.60
2023-07-18T15:03:10.959Z,4.40
2023-07-18T15:05:38.418Z,8.60
2023-07-18T15:08:05.896Z,4.10
2023-07-18T15:10:33.237Z,3.70
2023-07-18T15:13:00.610Z,3.80
2023-07-18T15:15:28.186Z,3.70
2023-07-18T15:17:55.524Z,4.00
2023-07-18T15:22:17.528Z,3.50
2023-07-18T15:24:45.206Z,3.70
2023-07-18T15:27:14.612Z,3.60
2023-07-18T15:29:44.390Z,3.40
2023-07-18T15:32:12.047Z,3.50
2023-07-18T15:34:39.851Z,3.50
2023-07-18T15:37:07.273Z,3.70
2023-07-18T15:39:34.849Z,3.40
2023-07-18T15:42:02.923Z,4.00
2023-07-18T15:44:30.275Z,4.00
2023-07-18T15:47:01.012Z,3.40
2023-07-18T15:49:28.441Z,3.60
2023-07-18T15:51:55.956Z,4.20
2023-07-18T15:54:23.316Z,3.30
2023-07-18T15:56:50.931Z,3.50
2023-07-18T15:59:18.353Z,3.60
2023-07-18T16:01:45.949Z,3.50
2023-07-18T16:04:14.457Z,3.30
2023-07-18T16:06:41.869Z,3.70
2023-07-18T16:09:09.881Z,3.90
2023-07-18T16:11:37.708Z,3.30
2023-07-18T16:14:05.099Z,3.10
2023-07-18T16:16:32.558Z,3.10
2023-07-18T16:19:05.341Z,3.50
2023-07-18T16:21:34.145Z,3.30
2023-07-18T16:24:01.955Z,3.50
2023-07-18T16:26:33.786Z,3.00
2023-07-18T16:29:02.504Z,3.00
2023-07-18T16:31:29.934Z,2.90
2023-07-18T16:34:12.339Z,3.10
2023-07-18T16:36:39.778Z,3.30
2023-07-18T16:39:07.166Z,2.80
2023-07-18T16:41:34.661Z,3.40
2023-07-18T16:44:02.370Z,2.80
2023-07-18T16:46:29.853Z,3.40
2023-07-18T16:48:57.334Z,3.40
2023-07-18T16:51:24.833Z,3.30
2023-07-18T16:53:52.187Z,2.70
2023-07-18T16:56:19.764Z,3.10
2023-07-18T16:58:47.476Z,3.00
2023-07-18T17:01:15.423Z,2.70
2023-07-18T17:03:43.960Z,3.00
2023-07-18T17:06:11.417Z,2.90
2023-07-18T17:08:39.056Z,3.10
2023-07-18T17:11:06.540Z,3.00
2023-07-18T17:13:34.040Z,3.00
2023-07-18T17:16:01.856Z,3.70
2023-07-18T17:18:29.271Z,4.20
2023-07-18T17:20:56.615Z,5.20
2023-07-18T17:23:24.729Z,6.00
2023-07-18T17:25:52.064Z,6.80
2023-07-18T17:28:19.390Z,5.90
2023-07-18T17:30:46.774Z,4.30
2023-07-18T17:33:14.819Z,4.30
2023-07-18T17:35:42.301Z,3.90
2023-07-18T17:40:51.394Z,4.10
2023-07-18T17:43:18.816Z,3.70
2023-07-18T17:45:46.159Z,4.00
2023-07-18T17:48:13.533Z,3.60
2023-07-18T17:50:40.952Z,5.50
2023-07-18T17:53:08.438Z,5.90
2023-07-18T17:55:35.832Z,7.50
2023-07-18T17:58:03.619Z,8.60
2023-07-18T18:00:31.139Z,7.30
2023-07-18T18:02:58.553Z,5.80
2023-07-18T18:08:36.167Z,6.10
2023-07-18T18:11:03.800Z,5.50
2023-07-18T18:13:31.191Z,5.10
2023-07-18T18:16:08.147Z,4.50
2023-07-18T18:18:37.243Z,4.20
2023-07-18T18:21:05.156Z,4.40
2023-07-18T18:23:39.381Z,4.30
2023-07-18T18:26:11.914Z,4.30
2023-07-18T18:28:39.314Z,4.20
2023-07-18T18:31:07.161Z,6.90
2023-07-18T18:33:34.572Z,5.40
2023-07-18T18:36:03.050Z,6.50
2023-07-18T18:38:32.058Z,7.40
2023-07-18T18:40:59.509Z,6.00
2023-07-18T18:43:26.892Z,7.70
2023-07-18T18:45:54.820Z,5.90
2023-07-18T18:48:23.274Z,6.00
2023-07-18T18:50:50.856Z,6.80
2023-07-18T18:53:18.686Z,7.00
2023-07-18T18:55:46.220Z,4.90
2023-07-18T18:58:14.565Z,5.90
2023-07-18T19:00:42.513Z,5.50
2023-07-18T19:03:10.559Z,5.00
2023-07-18T19:05:38.135Z,5.40
2023-07-18T19:08:05.969Z,5.10
2023-07-18T19:10:33.431Z,4.90
2023-07-18T19:13:01.857Z,4.90
2023-07-18T19:15:29.174Z,5.90
2023-07-18T19:17:56.688Z,5.10
2023-07-18T19:20:26.130Z,5.50
2023-07-18T19:22:54.260Z,5.20
2023-07-18T19:25:23.228Z,5.80
2023-07-18T19:27:51.192Z,5.70
2023-07-18T19:30:18.633Z,5.50
2023-07-18T19:32:46.454Z,5.50
2023-07-18T19:35:15.052Z,6.50
2023-07-18T19:37:43.635Z,7.10
2023-07-18T19:40:15.648Z,6.80
2023-07-18T19:42:43.245Z,7.20
2023-07-18T19:45:11.369Z,6.30
2023-07-18T19:47:38.801Z,7.00
2023-07-18T19:50:09.540Z,6.10
2023-07-18T19:52:40.086Z,6.20
2023-07-18T19:55:09.642Z,6.40
2023-07-18T19:57:37.324Z,6.20
2023-07-18T20:00:07.364Z,5.90
2023-07-18T20:02:41.783Z,5.80
2023-07-18T20:05:10.350Z,6.40
2023-07-18T20:07:40.058Z,5.40
2023-07-18T20:10:08.118Z,6.00
2023-07-18T20:12:35.518Z,6.40
2023-07-18T20:15:03.161Z,5.50
2023-07-18T20:17:30.639Z,6.70
2023-07-18T20:19:58.129Z,6.00
2023-07-18T20:22:25.452Z,5.40
2023-07-18T20:24:52.926Z,4.80
2023-07-18T20:27:20.275Z,5.60
2023-07-18T20:29:47.697Z,5.80
2023-07-18T20:32:15.452Z,5.80
2023-07-18T20:34:44.668Z,5.80
2023-07-18T20:37:12.024Z,4.90
2023-07-18T20:39:39.986Z,5.50
2023-07-18T20:42:07.611Z,5.80
2023-07-18T20:44:34.987Z,6.00
2023-07-18T20:47:02.728Z,5.40
2023-07-18T20:49:30.199Z,5.60
2023-07-18T20:51:57.496Z,5.20
2023-07-18T20:54:24.837Z,5.30
2023-07-18T20:56:52.512Z,5.00
2023-07-18T20:59:20.021Z,5.30
2023-07-18T21:01:47.382Z,5.40
2023-07-18T21:04:14.872Z,5.10
2023-07-18T21:06:42.309Z,5.50
2023-07-18T21:09:09.657Z,5.60
2023-07-18T21:11:37.300Z,5.50
2023-07-18T21:14:04.632Z,5.20
2023-07-18T21:16:32.009Z,5.30
2023-07-18T21:18:59.799Z,5.70
2023-07-18T21:21:27.144Z,5.60
2023-07-18T21:23:55.634Z,5.50
2023-07-18T21:26:26.058Z,5.60
2023-07-18T21:29:03.938Z,5.20
2023-07-18T21:31:33.575Z,5.80
2023-07-18T21:34:01.222Z,5.70
2023-07-18T21:36:28.998Z,5.90
2023-07-18T21:38:56.415Z,5.20
2023-07-18T21:41:24.224Z,5.70
2023-07-18T21:43:51.665Z,5.50
2023-07-18T21:46:19.105Z,5.10
2023-07-18T21:48:46.588Z,5.70
2023-07-18T21:51:13.947Z,5.10
2023-07-18T21:53:41.328Z,5.10
2023-07-18T21:56:08.686Z,5.20
2023-07-18T21:58:36.193Z,4.90
2023-07-18T22:01:04.722Z,5.40
2023-07-18T22:03:34.169Z,5.10
2023-07-18T22:06:01.640Z,5.30
2023-07-18T22:08:29.111Z,4.90
2023-07-18T22:10:56.462Z,5.00
2023-07-18T22:13:23.938Z,4.70
2023-07-18T22:15:51.374Z,4.70
2023-07-18T22:18:26.907Z,5.00
2023-07-18T22:20:55.187Z,5.30
2023-07-18T22:23:22.648Z,5.20
2023-07-18T22:26:03.830Z,5.70
2023-07-18T22:28:37.603Z,5.80
2023-07-18T22:31:04.970Z,6.00
2023-07-18T22:33:32.356Z,5.80
2023-07-18T22:35:59.716Z,5.90
2023-07-18T22:38:27.178Z,5.70
2023-07-18T22:40:54.553Z,5.90
2023-07-18T22:43:22.206Z,5.50
2023-07-18T22:45:49.640Z,6.40
2023-07-18T22:48:17.167Z,5.30
2023-07-18T22:50:44.589Z,5.80
2023-07-18T22:53:11.891Z,5.30
2023-07-18T22:55:39.208Z,5.40
2023-07-18T22:58:06.544Z,5.50
2023-07-18T23:00:33.890Z,5.40
2023-07-18T23:03:01.803Z,5.70
2023-07-18T23:05:29.210Z,5.30
2023-07-18T23:07:56.804Z,5.90
2023-07-18T23:10:24.172Z,5.80
2023-07-18T23:12:51.693Z,5.50
2023-07-18T23:15:19.538Z,5.20
2023-07-18T23:17:46.884Z,5.10
2023-07-18T23:20:14.236Z,4.70
2023-07-18T23:22:42.143Z,4.90
2023-07-18T23:25:09.761Z,4.90
2023-07-18T23:27:37.745Z,4.80
2023-07-18T23:30:05.661Z,5.00
2023-07-18T23:35:50.589Z,5.00
2023-07-18T23:38:18.161Z,4.70
2023-07-18T23:40:46.702Z,5.60
2023-07-18T23:43:14.640Z,4.90
2023-07-18T23:45:42.200Z,5.60
2023-07-18T23:48:09.791Z,5.30
2023-07-18T23:50:37.468Z,5.20
2023-07-18T23:53:05.038Z,5.10
2023-07-18T23:55:32.602Z,5.30
2023-07-18T23:58:00.274Z,5.60
